createdAt,value
2019-01-22T00:09:55.091Z,1011.2
2019-01-22T00:20:06.427Z,1011.1
2019-01-22T00:30:17.431Z,1011.0
2019-01-22T00:41:08.925Z,1010.9
2019-01-22T00:51:22.935Z,1010.7
2019-01-22T01:01:35.285Z,1010.6
2019-01-22T01:11:47.645Z,1010.4
2019-01-22T01:22:39.638Z,1010.2
2019-01-22T01:32:54.315Z,1010.2
2019-01-22T01:44:00.922Z,1009.9
2019-01-22T01:54:12.659Z,1009.7
2019-01-22T02:04:27.034Z,1009.4
2019-01-22T02:14:39.092Z,1009.4
2019-01-22T02:25:24.842Z,1009.1
2019-01-22T02:35:36.119Z,1009.0
2019-01-22T02:46:06.683Z,1008.7
2019-01-22T02:56:20.703Z,1008.6
2019-01-22T03:07:55.347Z,1008.5
2019-01-22T03:18:40.450Z,1008.2
2019-01-22T03:29:29.776Z,1008.2
2019-01-22T03:39:44.249Z,1008.0
2019-01-22T03:52:07.105Z,1007.7
2019-01-22T04:02:52.302Z,1007.4
2019-01-22T04:13:51.393Z,1007.4
2019-01-22T04:24:05.620Z,1007.2
2019-01-22T04:34:51.629Z,1007.0
2019-01-22T04:45:05.231Z,1006.9
2019-01-22T04:55:16.914Z,1006.8
2019-01-22T05:06:02.373Z,1006.7
2019-01-22T05:16:15.426Z,1006.4
2019-01-22T05:26:27.242Z,1006.4
2019-01-22T05:36:38.934Z,1006.3
2019-01-22T05:46:50.682Z,1006.1
2019-01-22T05:57:02.077Z,1006.1
2019-01-22T06:07:13.467Z,1006.0
2019-01-22T06:17:27.350Z,1005.7
2019-01-22T06:27:40.756Z,1005.5
2019-01-22T06:37:54.320Z,1005.3
2019-01-22T06:48:08.516Z,1005.2
2019-01-22T06:58:23.212Z,1005.2
2019-01-22T07:09:08.361Z,1004.9
2019-01-22T07:19:21.484Z,1004.8
2019-01-22T07:29:34.926Z,1004.6
2019-01-22T07:39:48.693Z,1004.6
2019-01-22T07:50:02.234Z,1004.5
2019-01-22T08:00:15.493Z,1004.5
2019-01-22T08:10:28.726Z,1004.4
2019-01-22T08:20:42.159Z,1004.2
2019-01-22T08:30:57.074Z,1004.0
2019-01-22T08:41:10.304Z,1003.9
2019-01-22T08:51:23.641Z,1003.8
2019-01-22T09:01:37.356Z,1003.7
2019-01-22T09:11:48.849Z,1003.5
2019-01-22T09:22:00.237Z,1003.3
2019-01-22T09:32:13.614Z,1003.1
2019-01-22T09:42:58.392Z,1002.8
2019-01-22T09:53:11.737Z,1002.6
2019-01-22T10:03:24.771Z,1002.4
2019-01-22T10:14:10.059Z,1002.0
2019-01-22T10:24:23.951Z,1002.0
2019-01-22T10:35:20.233Z,1002.0
2019-01-22T10:46:26.452Z,1001.9
2019-01-22T10:57:11.433Z,1001.7
2019-01-22T11:08:03.285Z,1001.5
2019-01-22T11:18:16.948Z,1001.5
2019-01-22T11:29:02.187Z,1001.2
2019-01-22T11:40:00.907Z,1000.7
2019-01-22T11:50:25.990Z,1000.5
2019-01-22T12:00:39.792Z,1000.3
2019-01-22T12:11:25.038Z,1000.2
2019-01-22T12:21:38.343Z,1000.0
2019-01-22T12:31:51.762Z,999.8
2019-01-22T12:42:36.446Z,999.7
2019-01-22T12:53:19.175Z,999.5
2019-01-22T13:04:14.315Z,999.4
2019-01-22T13:14:28.848Z,999.1
2019-01-22T13:24:42.721Z,999.0
2019-01-22T13:35:56.738Z,998.9
2019-01-22T13:46:46.117Z,998.9
2019-01-22T13:56:59.581Z,998.8
2019-01-22T14:07:32.202Z,998.8
2019-01-22T14:17:46.051Z,998.6
2019-01-22T14:27:56.982Z,998.5
2019-01-22T14:38:42.596Z,998.5
2019-01-22T14:49:27.491Z,998.5
2019-01-22T15:00:26.154Z,998.5
2019-01-22T15:10:44.015Z,998.5
2019-01-22T15:21:29.035Z,998.5
2019-01-22T15:31:42.313Z,998.3
2019-01-22T15:42:39.125Z,998.3
2019-01-22T15:55:54.028Z,998.1
2019-01-22T16:06:38.661Z,998.0
2019-01-22T16:17:24.301Z,998.0
2019-01-22T16:27:37.830Z,998.0
2019-01-22T16:38:35.679Z,998.1
2019-01-22T16:50:33.285Z,998.0
2019-01-22T17:01:20.855Z,998.0
2019-01-22T17:11:31.584Z,997.9
2019-01-22T17:21:48.353Z,997.8
2019-01-22T17:32:09.582Z,997.8
2019-01-22T17:42:28.768Z,997.7
2019-01-22T17:53:17.018Z,997.7
2019-01-22T18:04:07.061Z,997.8
2019-01-22T18:14:58.207Z,997.6
2019-01-22T18:25:54.221Z,997.5
2019-01-22T18:36:40.920Z,997.5
2019-01-22T18:46:55.346Z,997.6
2019-01-22T18:57:09.484Z,997.4
2019-01-22T19:07:26.259Z,997.4
2019-01-22T19:17:40.822Z,997.5
2019-01-22T19:27:56.094Z,997.4
2019-01-22T19:38:07.600Z,997.4
2019-01-22T19:48:21.322Z,997.3
2019-01-22T19:58:34.457Z,997.2
2019-01-22T20:08:47.899Z,997.1
2019-01-22T20:19:01.231Z,997.1
2019-01-22T20:29:14.378Z,997.0
2019-01-22T20:39:27.627Z,997.0
2019-01-22T20:50:18.760Z,996.9
2019-01-22T21:01:00.619Z,996.8
2019-01-22T21:11:48.764Z,996.8
2019-01-22T21:22:04.334Z,996.8
2019-01-22T21:32:17.571Z,996.7
2019-01-22T21:42:30.694Z,996.7
2019-01-22T21:52:42.079Z,996.6
2019-01-22T22:03:28.680Z,996.5
2019-01-22T22:13:42.234Z,996.4
2019-01-22T22:23:56.430Z,996.4
2019-01-22T22:34:58.541Z,996.4
2019-01-22T22:46:21.877Z,996.4
2019-01-22T22:56:43.186Z,996.3
2019-01-22T23:07:41.191Z,996.3
2019-01-22T23:18:46.723Z,996.2
2019-01-22T23:29:13.090Z,996.1
2019-01-22T23:39:58.582Z,996.1
2019-01-22T23:50:12.609Z,995.9
